Decoded Metar for KGFK (GRAND FORKS in ND, USA) (IATA:GFK) | Meteo·Mobile Aviation Weather
aviador You're here:

KGFK Decoded Metar

GRAND FORKS in ND, USA
Report Time2019-03-19 18:53:00
UTC Time2019-03-19 19:08:54
Flight Rules vfr VFR
Wind220° at 06 kt
W.Decomp.*RWY 17: 4.3 kt HW 4.2 kt RCW
RWY 27: 3.4 kt HW 5 kt LCW
W.Rank220° ranks 24
Current wind is below 220° avg. (7.1)
Visibility9999 m
Phenomena:N/A
Clouds:Overcast 210 Hf
Expected CloudBase > 1,200 ft AGL from Temp-Dew spread
Ceiling21,000 ft
Temp01°C (ISA -13)
Dew Point-2°C (81% RH)
AAT-3.4°C
QNH1020 hPa
Density Alt-1,096 ft
Elevation623 ft
Report Wrong Elevation
Raw Report
KGFK 191853Z 22006KT 10SM OVC210 01/M02 A3013 RMK AO2 SLP217
T00111017=

Extra information for KGFK:More info

Metar Taf Metar & Taf Last 4 Metars F.Rules Stats Wind Profile Meteogram Temp Stats Airport Information Weather charts Add Link Nearby VenuesMetar ALERT Operation Metar Decoded Social comments

AIRNAV info for KGFK